Time;durP1;ratioP1;P1;durP2;ratioP2;P2;SDS_P1;SDS_P2;PMS_P1;PMS_P2;Temp;Humidity;BMP_temperature;BMP_pressure;BME280_temperature;BME280_humidity;BME280_pressure;Samples;Min_cycle;Max_cycle;Signal;HPM_P1;HPM_P2
2021/12/25 00:01:09;;;;;;;10.73;9.60;;;;;;;6.17;90.92;100407.06;5063422;28;20036;-79
2021/12/25 00:03:36;;;;;;;11.93;10.15;;;;;;;6.08;90.87;100398.69;5044088;28;20025;-78
2021/12/25 00:06:02;;;;;;;11.18;9.85;;;;;;;6.08;90.50;100397.84;5064029;28;20115;-80
2021/12/25 00:08:32;;;;;;;12.40;11.05;;;;;;;5.95;90.41;100392.34;5062060;28;20078;-77
2021/12/25 00:10:59;;;;;;;12.35;11.02;;;;;;;5.90;90.08;100404.88;5058976;28;20041;-79
2021/12/25 00:13:25;;;;;;;12.45;11.15;;;;;;;5.90;90.94;100403.09;5050113;28;20028;-79
2021/12/25 00:15:54;;;;;;;13.52;11.45;;;;;;;5.93;91.18;100415.31;5040677;28;20108;-79
2021/12/25 00:18:24;;;;;;;13.27;11.83;;;;;;;5.80;90.76;100393.09;5047321;28;20021;-79
2021/12/25 00:20:50;;;;;;;12.18;10.82;;;;;;;5.79;90.67;100386.94;5070210;28;20025;-77
2021/12/25 00:23:18;;;;;;;12.02;10.82;;;;;;;5.91;90.80;100403.94;5052984;28;20025;-78
2021/12/25 00:25:50;;;;;;;12.85;11.52;;;;;;;5.95;91.24;100404.69;5034794;28;20028;-78
2021/12/25 00:33:37;;;;;;;;;;;;;;;5.98;91.32;100384.25;5054677;28;20154;-80
2021/12/25 00:36:04;;;;;;;14.10;12.60;;;;;;;5.88;91.36;100375.94;5069008;28;19916;-80
2021/12/25 00:38:31;;;;;;;15.27;12.63;;;;;;;5.89;90.35;100395.25;5072855;28;20055;-78
2021/12/25 00:40:57;;;;;;;17.92;13.80;;;;;;;5.76;91.20;100367.78;5054622;28;20081;-77
2021/12/25 00:43:22;;;;;;;15.88;13.18;;;;;;;5.79;90.93;100365.84;5086717;28;20035;-77
2021/12/25 00:45:50;;;;;;;16.38;13.50;;;;;;;5.89;90.67;100393.47;5092080;28;20043;-78
2021/12/25 00:48:15;;;;;;;15.43;13.68;;;;;;;5.88;90.57;100396.19;5074871;28;20028;-77
2021/12/25 00:50:41;;;;;;;15.48;13.80;;;;;;;5.89;91.45;100400.53;5092133;28;20086;-78
2021/12/25 00:53:06;;;;;;;16.30;13.95;;;;;;;5.81;91.72;100389.50;5092394;28;20104;-76
2021/12/25 00:55:32;;;;;;;16.80;14.07;;;;;;;5.90;90.77;100399.59;5073377;28;20032;-76
2021/12/25 00:57:57;;;;;;;18.65;14.18;;;;;;;5.92;91.01;100398.59;5092598;28;20043;-75
2021/12/25 01:00:23;;;;;;;16.63;13.55;;;;;;;5.95;91.29;100397.63;5073950;28;20494;-76
2021/12/25 01:02:50;;;;;;;17.13;13.32;;;;;;;5.98;91.19;100399.25;5092438;28;20526;-76
2021/12/25 01:05:17;;;;;;;17.70;14.63;;;;;;;5.91;90.58;100394.25;5074220;28;20475;-77
2021/12/25 01:07:43;;;;;;;15.95;13.80;;;;;;;5.99;90.91;100400.94;5091905;28;20114;-74
2021/12/25 01:10:16;;;;;;;17.20;13.90;;;;;;;5.86;90.78;100391.00;5073936;28;20123;-79
2021/12/25 01:16:02;;;;;;;17.10;14.48;;;;;;;5.83;91.06;100382.38;5092653;28;20066;-76
2021/12/25 01:18:56;;;;;;;18.40;15.95;;;;;;;5.81;90.76;100377.16;5090196;28;20118;-78
2021/12/25 01:47:46;;;;;;;21.40;18.38;;;;;;;5.42;91.52;100357.16;5076670;28;20043;-75
2021/12/25 01:50:13;;;;;;;23.23;20.30;;;;;;;5.52;92.03;100367.25;5073421;28;20047;-77
2021/12/25 01:52:39;;;;;;;25.10;20.75;;;;;;;5.66;91.53;100385.88;5091560;28;20027;-79
2021/12/25 01:55:08;;;;;;;27.13;21.85;;;;;;;5.60;92.52;100373.84;5072975;28;20024;-76
2021/12/25 01:57:34;;;;;;;25.05;20.88;;;;;;;5.52;91.83;100360.16;5087090;28;20385;-76
2021/12/25 02:00:03;;;;;;;25.65;22.08;;;;;;;5.68;92.25;100389.28;5076107;28;20036;-76
2021/12/25 02:02:28;;;;;;;26.42;22.05;;;;;;;5.49;91.56;100354.19;5075359;28;20055;-77
2021/12/25 02:04:54;;;;;;;26.48;22.58;;;;;;;5.72;91.53;100388.19;5073250;28;20536;-77
2021/12/25 02:07:20;;;;;;;30.48;23.40;;;;;;;5.65;91.38;100390.28;5091636;28;20024;-76
2021/12/25 02:09:46;;;;;;;28.05;23.45;;;;;;;5.49;91.26;100360.31;5090180;28;20016;-75
2021/12/25 02:12:14;;;;;;;29.85;24.67;;;;;;;5.60;91.53;100380.91;5091670;28;20086;-79
2021/12/25 02:14:43;;;;;;;29.88;25.60;;;;;;;5.44;91.59;100372.88;5073198;28;20066;-74
2021/12/25 02:17:27;;;;;;;31.63;25.63;;;;;;;5.49;91.48;100380.56;5092149;28;20074;-75
2021/12/25 02:20:16;;;;;;;31.60;27.35;;;;;;;5.47;91.60;100356.91;5104233;27;20090;-75
2021/12/25 02:22:46;;;;;;;36.13;27.50;;;;;;;5.52;91.31;100364.59;5091429;28;20043;-77
2021/12/25 02:25:14;;;;;;;34.58;28.52;;;;;;;5.61;91.48;100386.09;5091187;28;20012;-78
2021/12/25 02:27:40;;;;;;;35.28;28.30;;;;;;;5.59;91.04;100381.81;5091529;28;20024;-75
2021/12/25 02:30:07;;;;;;;37.83;29.10;;;;;;;5.56;90.59;100380.22;5036474;28;20444;-76
2021/12/25 02:32:33;;;;;;;37.70;29.40;;;;;;;5.58;91.15;100380.13;5061490;28;20027;-74
2021/12/25 02:34:59;;;;;;;37.67;29.45;;;;;;;5.46;91.15;100356.06;5091046;28;20044;-76
2021/12/25 02:37:26;;;;;;;36.42;27.75;;;;;;;5.41;90.30;100362.47;5074987;28;20438;-76
2021/12/25 02:39:52;;;;;;;33.17;27.45;;;;;;;5.50;90.78;100385.78;5076882;28;20068;-77
2021/12/25 02:42:18;;;;;;;34.00;27.70;;;;;;;5.48;90.84;100379.72;5076502;28;20039;-76
2021/12/25 02:44:44;;;;;;;31.35;25.58;;;;;;;5.47;90.16;100384.16;5094903;28;20032;-75
2021/12/25 02:47:19;;;;;;;32.13;24.92;;;;;;;5.32;90.87;100366.44;5060026;28;20047;-76
2021/12/25 02:49:52;;;;;;;33.78;25.95;;;;;;;5.41;90.51;100388.84;5094119;28;20368;-77
2021/12/25 02:52:20;;;;;;;29.45;24.23;;;;;;;5.41;90.96;100380.94;5094913;28;20023;-76
2021/12/25 02:54:45;;;;;;;34.53;26.00;;;;;;;5.41;91.27;100391.50;5093171;28;20035;-76
2021/12/25 02:57:11;;;;;;;29.00;23.25;;;;;;;5.34;90.67;100382.19;5087534;28;20052;-73
2021/12/25 02:59:37;;;;;;;27.48;22.73;;;;;;;5.14;90.34;100359.41;5083267;28;20184;-75
2021/12/25 03:02:07;;;;;;;30.13;22.75;;;;;;;5.33;91.02;100386.63;5090073;28;20129;-77
2021/12/25 03:04:35;;;;;;;27.27;21.63;;;;;;;5.35;91.01;100387.38;5092269;28;20032;-78
2021/12/25 03:07:01;;;;;;;25.73;21.02;;;;;;;5.29;91.01;100387.66;5094545;28;20028;-76
2021/12/25 03:09:26;;;;;;;25.15;20.90;;;;;;;5.21;90.84;100374.88;5094323;28;20028;-77
2021/12/25 03:11:52;;;;;;;24.65;20.60;;;;;;;5.22;90.59;100400.31;5076175;28;20052;-75
2021/12/25 03:14:34;;;;;;;21.02;18.45;;;;;;;5.12;89.83;100398.19;5075590;28;20506;-75
2021/12/25 03:17:02;;;;;;;19.80;17.70;;;;;;;5.05;90.06;100402.88;5078882;28;20028;-75
2021/12/25 03:19:32;;;;;;;21.17;17.30;;;;;;;4.86;90.19;100384.47;5094370;28;20112;-77
2021/12/25 03:22:03;;;;;;;20.75;17.00;;;;;;;4.91;90.35;100411.47;5077198;28;20024;-74
2021/12/25 03:24:29;;;;;;;20.23;16.98;;;;;;;4.81;89.98;100412.81;5093885;28;20032;-76
2021/12/25 03:26:56;;;;;;;20.65;17.10;;;;;;;4.74;89.54;100419.28;5076261;28;20123;-75
2021/12/25 03:29:23;;;;;;;23.13;18.42;;;;;;;4.74;90.15;100419.28;5075913;28;20505;-77
2021/12/25 03:31:51;;;;;;;23.52;18.42;;;;;;;4.70;90.79;100425.59;5094211;28;20467;-76
2021/12/25 03:34:18;;;;;;;23.30;18.88;;;;;;;4.61;89.95;100428.66;5093765;28;20040;-76
2021/12/25 03:36:43;;;;;;;25.52;18.70;;;;;;;4.59;90.91;100417.31;5094218;28;20536;-76
2021/12/25 03:39:09;;;;;;;23.45;18.67;;;;;;;4.57;90.58;100422.69;5093795;28;20486;-77
2021/12/25 03:41:35;;;;;;;24.10;19.00;;;;;;;4.45;90.54;100410.06;5076135;28;20043;-78
2021/12/25 03:44:01;;;;;;;24.98;19.65;;;;;;;4.40;89.77;100420.78;5093513;28;20039;-75
2021/12/25 03:46:31;;;;;;;26.70;19.30;;;;;;;4.51;89.84;100431.72;5093912;28;20425;-76
2021/12/25 03:49:08;;;;;;;24.02;19.42;;;;;;;4.46;89.97;100430.19;5092684;28;20028;-78
2021/12/25 03:59:53;;;;;;;22.92;18.58;;;;;;;4.37;88.90;100443.78;5093203;28;20073;-76
2021/12/25 04:02:24;;;;;;;21.10;17.45;;;;;;;4.30;89.23;100438.78;5092966;28;20059;-75
2021/12/25 04:04:50;;;;;;;22.15;18.70;;;;;;;4.22;89.47;100433.00;5075208;28;20047;-77
2021/12/25 04:09:59;;;;;;;20.23;17.63;;;;;;;4.00;87.68;100424.31;5093347;28;20445;-76
2021/12/25 04:12:24;;;;;;;20.55;18.05;;;;;;;3.99;88.18;100422.59;5093570;28;20024;-78
2021/12/25 04:14:50;;;;;;;20.67;17.55;;;;;;;4.09;87.52;100452.88;5093264;28;20038;-75
2021/12/25 04:17:20;;;;;;;20.52;17.70;;;;;;;4.07;87.87;100459.97;5058697;28;20032;-75
2021/12/25 04:19:48;;;;;;;;;;;;;;;4.15;88.03;100457.88;5093841;28;20024;-76
2021/12/25 04:22:24;;;;;;;21.13;18.42;;;;;;;4.04;88.29;100452.22;5091967;28;19986;-77
2021/12/25 04:24:52;;;;;;;21.90;18.20;;;;;;;3.87;88.41;100435.34;5093079;28;20032;-74
2021/12/25 04:27:18;;;;;;;21.17;17.27;;;;;;;3.83;88.29;100439.03;5093030;28;20463;-75
2021/12/25 05:05:04;;;;;;;25.25;22.55;;;;;;;3.33;87.01;100491.03;5092232;28;20538;-76
2021/12/25 05:07:29;;;;;;;23.73;21.23;;;;;;;3.38;87.30;100508.34;5092583;28;20438;-75
2021/12/25 05:09:57;;;;;;;26.00;22.63;;;;;;;3.26;86.85;100495.66;5090409;28;20024;-75
2021/12/25 05:12:22;;;;;;;22.70;20.30;;;;;;;3.15;86.74;100485.59;5092345;28;20032;-75
2021/12/25 05:14:48;;;;;;;23.90;21.33;;;;;;;3.22;85.48;100516.88;5090944;28;20100;-76
2021/12/25 05:17:14;;;;;;;24.13;21.27;;;;;;;3.03;86.18;100496.56;5090973;28;20055;-77
2021/12/25 05:19:40;;;;;;;23.60;19.63;;;;;;;3.13;86.47;100518.94;5091996;28;20059;-77
2021/12/25 05:22:06;;;;;;;22.90;20.42;;;;;;;3.05;86.11;100520.97;5092074;28;20475;-76
2021/12/25 05:24:35;;;;;;;22.88;20.48;;;;;;;3.11;86.14;100525.16;5092167;28;20066;-76
2021/12/25 05:27:02;;;;;;;23.85;21.10;;;;;;;3.02;85.80;100521.09;5090746;28;20123;-79
2021/12/25 05:29:31;;;;;;;23.13;20.38;;;;;;;2.91;86.01;100507.50;5091620;28;20028;-76
2021/12/25 05:31:56;;;;;;;24.83;21.58;;;;;;;2.91;86.00;100499.63;5091107;28;20030;-75
2021/12/25 05:34:22;;;;;;;23.75;21.25;;;;;;;3.00;85.96;100516.81;5073434;28;20118;-75
2021/12/25 05:36:53;;;;;;;22.80;20.35;;;;;;;3.01;85.81;100529.91;5090922;28;20040;-75
2021/12/25 05:39:18;;;;;;;24.38;20.13;;;;;;;3.00;85.27;100536.09;5091784;28;20467;-75
2021/12/25 05:41:44;;;;;;;22.63;20.20;;;;;;;2.81;85.49;100522.75;5091648;28;20040;-75
2021/12/25 05:44:09;;;;;;;23.48;20.90;;;;;;;2.83;85.72;100522.72;5090570;28;20036;-75
2021/12/25 05:46:34;;;;;;;23.10;20.60;;;;;;;2.83;85.68;100531.44;5091972;28;20043;-78
2021/12/25 05:49:00;;;;;;;23.77;20.95;;;;;;;2.77;85.15;100529.03;5091465;28;20399;-76
2021/12/25 05:51:27;;;;;;;23.00;20.30;;;;;;;2.79;85.55;100539.47;5091533;28;20114;-76
2021/12/25 05:53:53;;;;;;;22.85;20.45;;;;;;;2.72;85.29;100544.94;5090362;28;20031;-77
2021/12/25 05:56:19;;;;;;;23.25;20.33;;;;;;;2.69;86.01;100531.06;5090596;28;20081;-77
2021/12/25 05:58:44;;;;;;;22.73;20.10;;;;;;;2.55;85.83;100507.94;5073307;28;20043;-78
2021/12/25 06:01:11;;;;;;;23.75;21.13;;;;;;;2.65;85.42;100547.84;5090132;28;20083;-75
2021/12/25 06:03:37;;;;;;;23.63;20.45;;;;;;;2.66;85.66;100550.41;5091653;28;20032;-76
2021/12/25 06:06:06;;;;;;;23.70;20.88;;;;;;;2.61;85.82;100554.09;5091386;28;20028;-76
2021/12/25 06:08:34;;;;;;;23.20;20.48;;;;;;;2.59;85.75;100541.06;5074127;28;20122;-76
2021/12/25 06:11:03;;;;;;;23.23;20.20;;;;;;;2.71;85.63;100558.13;5073851;28;20024;-75
2021/12/25 06:13:29;;;;;;;23.02;20.30;;;;;;;2.49;85.60;100530.00;5077372;28;20073;-74
2021/12/25 06:15:56;;;;;;;23.77;20.35;;;;;;;2.48;85.29;100536.16;5095470;28;20036;-75
2021/12/25 06:18:21;;;;;;;23.58;20.50;;;;;;;2.59;85.29;100556.81;5094055;28;20494;-76
2021/12/25 06:20:47;;;;;;;23.33;19.73;;;;;;;2.43;85.87;100543.34;5077204;28;20036;-76
2021/12/25 06:23:15;;;;;;;23.13;20.63;;;;;;;2.50;85.23;100560.59;5095424;28;20070;-76
2021/12/25 06:25:41;;;;;;;23.20;20.55;;;;;;;2.44;86.13;100565.19;5094261;28;20074;-76
2021/12/25 06:28:10;;;;;;;23.25;20.75;;;;;;;2.58;86.09;100576.06;5076592;28;20075;-77
2021/12/25 06:30:38;;;;;;;23.98;21.48;;;;;;;2.46;85.24;100574.72;5095219;28;20027;-75
2021/12/25 06:33:04;;;;;;;22.25;19.83;;;;;;;2.41;86.27;100566.16;5095355;28;20016;-76
2021/12/25 06:35:31;;;;;;;20.97;18.73;;;;;;;2.34;85.49;100583.00;5090838;28;20139;-75
2021/12/25 06:37:56;;;;;;;20.50;18.27;;;;;;;2.31;85.65;100583.13;5073332;28;20032;-77
2021/12/25 06:40:22;;;;;;;21.38;19.13;;;;;;;2.21;85.81;100566.84;5071457;28;20096;-76
2021/12/25 06:42:48;;;;;;;21.10;18.55;;;;;;;2.18;85.55;100585.31;5076792;28;20076;-76
2021/12/25 06:45:15;;;;;;;21.53;18.47;;;;;;;2.23;85.62;100585.13;5095353;28;20024;-77
2021/12/25 06:47:41;;;;;;;21.92;18.52;;;;;;;2.24;85.67;100577.22;5094956;28;20027;-77
2021/12/25 06:50:08;;;;;;;21.67;19.30;;;;;;;2.12;85.85;100571.50;5076459;28;20028;-76
2021/12/25 06:52:36;;;;;;;20.70;18.23;;;;;;;2.10;85.97;100566.31;5076599;28;20055;-75
2021/12/25 06:55:04;;;;;;;21.03;18.27;;;;;;;2.20;85.19;100582.59;5094762;28;20024;-75
2021/12/25 06:57:30;;;;;;;19.13;17.13;;;;;;;2.15;85.51;100588.03;5094800;28;20109;-75
2021/12/25 06:59:55;;;;;;;21.50;18.75;;;;;;;1.87;85.97;100545.22;5094359;28;20055;-74
2021/12/25 07:02:23;;;;;;;19.23;17.13;;;;;;;2.02;85.65;100586.69;5080565;28;20059;-74
2021/12/25 07:04:49;;;;;;;19.80;17.77;;;;;;;1.87;85.65;100580.16;5087139;28;20070;-73
2021/12/25 07:07:17;;;;;;;22.57;18.40;;;;;;;1.98;86.23;100601.66;5074944;28;20024;-75
2021/12/25 07:09:43;;;;;;;19.27;17.27;;;;;;;1.83;85.80;100573.31;5090029;28;20494;-77
2021/12/25 07:12:09;;;;;;;19.63;17.60;;;;;;;1.96;87.08;100603.47;5074263;28;20032;-79
2021/12/25 07:14:35;;;;;;;18.97;17.07;;;;;;;2.05;86.13;100612.81;5082479;28;20040;-79
2021/12/25 07:17:00;;;;;;;18.87;16.87;;;;;;;2.05;86.07;100612.81;5086756;28;20126;-77
2021/12/25 07:19:26;;;;;;;19.23;16.87;;;;;;;1.94;85.81;100584.31;5077101;28;20020;-78
2021/12/25 07:21:51;;;;;;;21.33;17.37;;;;;;;2.12;86.32;100611.72;5092013;28;20474;-78
2021/12/25 07:24:17;;;;;;;19.50;17.40;;;;;;;2.09;85.81;100626.69;5082834;28;20223;-77
2021/12/25 07:26:42;;;;;;;18.92;17.05;;;;;;;1.87;85.97;100602.91;5078476;28;20039;-78
2021/12/25 07:29:08;;;;;;;18.27;16.37;;;;;;;1.90;86.45;100621.16;5093002;28;20028;-78
2021/12/25 07:31:34;;;;;;;18.40;15.90;;;;;;;1.84;86.12;100637.09;5094534;28;20034;-77
2021/12/25 07:33:59;;;;;;;19.20;16.47;;;;;;;1.81;86.50;100624.94;5093590;28;20475;-78
2021/12/25 07:36:24;;;;;;;18.43;16.30;;;;;;;1.71;85.70;100624.38;5093686;28;20048;-77
2021/12/25 07:38:52;;;;;;;17.40;15.60;;;;;;;1.69;86.28;100623.53;5094314;28;20035;-78
2021/12/25 07:41:18;;;;;;;17.43;15.37;;;;;;;1.55;85.66;100616.06;5092374;28;20107;-76
2021/12/25 07:43:46;;;;;;;17.47;15.07;;;;;;;1.54;86.44;100621.38;5092925;28;20032;-77
2021/12/25 07:46:14;;;;;;;17.33;15.53;;;;;;;1.68;86.21;100641.94;5072090;28;20035;-78
2021/12/25 07:48:40;;;;;;;17.73;15.30;;;;;;;1.72;86.29;100643.56;5092102;28;20020;-80
2021/12/25 07:51:05;;;;;;;17.50;15.17;;;;;;;1.59;86.35;100625.59;5093502;28;20035;-78
2021/12/25 07:53:32;;;;;;;17.03;15.23;;;;;;;1.69;86.68;100641.88;5093488;28;20114;-77
2021/12/25 07:56:00;;;;;;;17.93;14.63;;;;;;;1.55;86.51;100623.09;5094051;28;20020;-78
2021/12/25 07:58:26;;;;;;;16.30;14.50;;;;;;;1.62;85.56;100645.63;5056161;28;20056;-77
2021/12/25 08:00:53;;;;;;;16.07;14.47;;;;;;;1.63;86.25;100642.06;5091405;28;20850;-77
2021/12/25 08:03:19;;;;;;;17.80;14.00;;;;;;;1.61;85.58;100654.34;5075500;28;20061;-78
2021/12/25 08:05:45;;;;;;;16.10;14.23;;;;;;;1.42;86.42;100630.47;5075145;28;20024;-79
2021/12/25 08:08:12;;;;;;;16.30;14.43;;;;;;;1.42;85.45;100637.47;5092471;28;20555;-79
2021/12/25 08:10:39;;;;;;;16.47;14.27;;;;;;;1.57;86.06;100644.88;5093666;28;20012;-76
2021/12/25 08:13:04;;;;;;;14.97;12.73;;;;;;;1.55;85.73;100652.78;5093337;28;20031;-82
2021/12/25 08:15:31;;;;;;;16.20;14.40;;;;;;;1.66;85.92;100667.34;5075370;28;20471;-77
2021/12/25 08:17:57;;;;;;;15.27;13.67;;;;;;;1.51;85.75;100659.03;5091996;28;20125;-79
2021/12/25 08:20:26;;;;;;;14.20;12.80;;;;;;;1.55;85.44;100670.25;5093247;28;20013;-77
2021/12/25 08:22:52;;;;;;;13.83;12.43;;;;;;;1.50;85.59;100675.66;5093471;28;20026;-79
2021/12/25 08:25:18;;;;;;;14.23;11.93;;;;;;;1.41;84.74;100675.88;5093082;28;20118;-79
2021/12/25 08:27:47;;;;;;;13.57;12.17;;;;;;;1.37;85.05;100679.50;5091850;28;20490;-79
2021/12/25 08:30:21;;;;;;;13.40;12.00;;;;;;;1.34;85.45;100682.22;5092960;28;20020;-80
2021/12/25 08:32:47;;;;;;;16.83;11.87;;;;;;;1.38;85.32;100682.97;5075226;28;20425;-79
2021/12/25 08:35:16;;;;;;;15.30;12.67;;;;;;;1.28;85.81;100682.38;5092397;28;20051;-78
2021/12/25 08:37:43;;;;;;;14.47;12.97;;;;;;;1.36;85.67;100680.41;5092561;28;20028;-80
2021/12/25 08:40:12;;;;;;;16.20;14.50;;;;;;;1.38;85.04;100683.84;5092952;28;20030;-79
2021/12/25 08:42:45;;;;;;;14.68;13.25;;;;;;;1.35;84.81;100690.03;5092824;28;20413;-78
2021/12/25 08:45:30;;;;;;;20.57;17.17;;;;;;;1.41;85.86;100690.75;5091840;28;20426;-80
2021/12/25 08:47:56;;;;;;;15.97;13.63;;;;;;;1.20;85.17;100677.34;5092510;28;20024;-78
2021/12/25 08:50:22;;;;;;;17.23;12.87;;;;;;;1.26;83.88;100703.38;5057403;28;20043;-77
2021/12/25 08:52:47;;;;;;;17.50;15.70;;;;;;;1.18;84.59;100681.78;5092721;28;20032;-77
2021/12/25 08:55:12;;;;;;;57.37;39.40;;;;;;;1.14;84.31;100701.09;5092137;28;20032;-77
2021/12/25 08:57:41;;;;;;;15.87;14.27;;;;;;;1.25;85.32;100719.16;5074662;28;20044;-78
2021/12/25 09:00:08;;;;;;;16.17;14.50;;;;;;;1.38;84.87;100717.91;5092371;28;20028;-80
2021/12/25 09:02:33;;;;;;;17.37;15.10;;;;;;;1.38;84.43;100709.19;5073911;28;20418;-76
2021/12/25 09:04:59;;;;;;;25.53;22.83;;;;;;;1.33;84.23;100719.81;5090450;28;20052;-77
2021/12/25 09:07:24;;;;;;;33.50;27.70;;;;;;;1.38;84.53;100714.41;5073998;28;20035;-79
2021/12/25 09:09:50;;;;;;;16.27;14.57;;;;;;;1.28;83.60;100709.44;5092156;28;20561;-79
2021/12/25 09:12:20;;;;;;;13.03;11.70;;;;;;;1.05;83.49;100691.72;5092921;28;20081;-79
2021/12/25 09:14:45;;;;;;;14.63;11.93;;;;;;;1.21;83.53;100728.84;5087126;28;20482;-81
2021/12/25 09:17:12;;;;;;;14.87;13.37;;;;;;;1.21;83.65;100722.75;5090956;28;20032;-79
2021/12/25 09:19:38;;;;;;;13.53;12.30;;;;;;;1.12;84.11;100729.09;5091797;28;20486;-79
2021/12/25 09:22:06;;;;;;;13.87;12.43;;;;;;;1.05;84.21;100714.44;5091110;28;20055;-79
2021/12/25 09:24:32;;;;;;;13.70;11.80;;;;;;;1.06;83.66;100717.03;5090865;28;20478;-80
2021/12/25 09:27:01;;;;;;;13.30;11.90;;;;;;;1.14;84.11;100733.38;5073755;28;20036;-77
2021/12/25 09:29:27;;;;;;;13.10;11.80;;;;;;;1.14;83.15;100727.28;5091823;28;20402;-77
2021/12/25 09:31:55;;;;;;;13.50;12.10;;;;;;;1.03;83.51;100719.72;5091952;28;20311;-79
2021/12/25 09:34:20;;;;;;;14.07;12.47;;;;;;;1.08;83.70;100724.81;5091939;28;20543;-78
2021/12/25 09:36:46;;;;;;;12.87;11.57;;;;;;;1.21;82.51;100728.84;5091527;28;20027;-76
2021/12/25 09:39:11;;;;;;;12.97;11.67;;;;;;;1.16;82.79;100712.38;5091421;28;20036;-80
2021/12/25 09:41:37;;;;;;;12.50;11.20;;;;;;;1.19;82.80;100735.88;5085225;28;20169;-78
2021/12/25 09:44:04;;;;;;;13.27;11.97;;;;;;;0.95;82.59;100692.88;5085618;28;20020;-78
2021/12/25 09:46:30;;;;;;;12.57;11.37;;;;;;;1.00;82.07;100711.94;5076256;28;20105;-81
2021/12/25 09:48:57;;;;;;;15.47;11.27;;;;;;;1.08;82.44;100743.16;5090998;28;20056;-79
2021/12/25 09:51:22;;;;;;;13.50;11.77;;;;;;;1.18;82.96;100746.38;5073089;28;20027;-77
2021/12/25 09:54:01;;;;;;;13.40;10.80;;;;;;;1.24;82.64;100748.88;5073377;28;20505;-77
2021/12/25 09:56:31;;;;;;;12.43;11.20;;;;;;;1.09;81.95;100763.22;5091254;28;20024;-79
2021/12/25 09:58:57;;;;;;;13.13;11.68;;;;;;;0.90;83.20;100747.94;5091061;28;20028;-76
2021/12/25 10:01:44;;;;;;;12.37;11.27;;;;;;;0.85;82.48;100741.09;5078215;28;20544;-80
2021/12/25 10:04:28;;;;;;;12.70;11.40;;;;;;;1.06;82.29;100765.88;5073080;28;20020;-77
2021/12/25 10:06:54;;;;;;;13.17;11.87;;;;;;;1.00;82.10;100774.78;5090862;28;20558;-78
2021/12/25 10:09:26;;;;;;;12.70;11.40;;;;;;;0.92;81.88;100761.03;5073271;28;20107;-79
2021/12/25 10:12:01;;;;;;;12.80;11.50;;;;;;;1.07;83.22;100778.97;5090767;28;20020;-79
2021/12/25 10:14:26;;;;;;;13.13;11.23;;;;;;;1.07;82.01;100778.09;5073005;28;20039;-78
2021/12/25 10:16:52;;;;;;;17.47;12.57;;;;;;;1.07;82.04;100785.97;5073127;28;20364;-77
2021/12/25 10:19:22;;;;;;;12.50;11.20;;;;;;;1.02;81.96;100764.25;5101678;28;20168;-79
2021/12/25 10:21:51;;;;;;;12.70;10.93;;;;;;;1.13;82.09;100783.19;5092053;28;20031;-79
2021/12/25 10:24:26;;;;;;;13.43;12.03;;;;;;;0.96;82.08;100752.19;5091156;28;20024;-78
2021/12/25 10:26:52;;;;;;;12.67;11.53;;;;;;;0.97;80.89;100768.75;5074864;28;20382;-79
2021/12/25 10:29:24;;;;;;;13.10;11.80;;;;;;;1.12;81.42;100784.94;5090833;28;20020;-78
2021/12/25 10:31:51;;;;;;;12.53;11.23;;;;;;;1.07;81.75;100778.09;5090811;28;20047;-78
2021/12/25 10:34:23;;;;;;;13.80;11.53;;;;;;;1.10;82.11;100773.66;5090797;28;20077;-76
2021/12/25 10:36:49;;;;;;;13.00;11.53;;;;;;;1.13;81.25;100770.09;5071084;28;20048;-79
2021/12/25 10:39:16;;;;;;;11.73;10.53;;;;;;;1.13;80.91;100768.31;5033034;28;20392;-80
2021/12/25 10:42:03;;;;;;;12.07;10.90;;;;;;;0.98;81.46;100766.09;5050324;28;20053;-77
2021/12/25 10:44:33;;;;;;;12.37;11.17;;;;;;;0.92;80.96;100763.63;5065980;28;20025;-81
2021/12/25 10:47:03;;;;;;;12.50;11.20;;;;;;;0.88;81.88;100754.13;5050784;28;20079;-79
2021/12/25 10:49:30;;;;;;;;;;;;;;;1.07;81.09;100784.19;5067224;28;20219;-79
2021/12/25 10:52:11;;;;;;;11.40;10.30;;;;;;;1.01;81.17;100779.13;5070453;28;19970;-77
2021/12/25 10:54:40;;;;;;;11.93;10.38;;;;;;;1.00;80.71;100780.03;5067123;28;20017;-78
2021/12/25 10:57:08;;;;;;;11.18;10.07;;;;;;;1.04;81.19;100779.03;5058345;28;20128;-79
2021/12/25 10:59:50;;;;;;;12.43;11.23;;;;;;;1.04;80.40;100773.81;5071236;28;20100;-77
2021/12/25 11:02:42;;;;;;;12.10;10.80;;;;;;;1.06;80.35;100765.88;5043300;28;20020;-78
2021/12/25 11:05:19;;;;;;;12.47;10.80;;;;;;;1.05;81.96;100770.28;5058093;28;20057;-79
2021/12/25 11:07:46;;;;;;;12.57;11.17;;;;;;;1.07;80.77;100775.50;5059981;28;20119;-77
2021/12/25 11:10:17;;;;;;;14.33;10.00;;;;;;;0.93;79.86;100752.25;5065068;28;20027;-76
2021/12/25 11:12:42;;;;;;;11.83;10.30;;;;;;;0.79;79.81;100736.03;5051134;28;20438;-78
2021/12/25 11:15:15;;;;;;;10.57;9.57;;;;;;;0.91;79.49;100775.00;5070686;28;20036;-78
2021/12/25 11:17:43;;;;;;;10.13;9.23;;;;;;;0.93;79.48;100786.28;5062778;28;20100;-78
2021/12/25 11:20:18;;;;;;;11.20;10.00;;;;;;;0.90;80.64;100771.50;5065861;28;20459;-77
2021/12/25 11:22:56;;;;;;;11.00;9.87;;;;;;;0.81;80.45;100749.94;5067319;28;20379;-77
2021/12/25 11:25:25;;;;;;;11.73;9.57;;;;;;;0.92;80.03;100770.63;5053426;28;20506;-79
2021/12/25 11:27:51;;;;;;;10.38;9.48;;;;;;;0.82;78.66;100770.84;5057608;28;20021;-78
2021/12/25 11:30:22;;;;;;;9.80;8.83;;;;;;;0.82;78.91;100764.75;5055113;28;20475;-76
2021/12/25 11:32:50;;;;;;;8.80;8.00;;;;;;;0.95;78.62;100774.03;5052837;28;20032;-78
2021/12/25 11:35:19;;;;;;;12.20;8.77;;;;;;;1.01;79.87;100763.41;5071400;28;20052;-77
2021/12/25 11:37:47;;;;;;;9.82;8.88;;;;;;;1.08;79.27;100762.34;5082845;28;20021;-77
2021/12/25 11:40:14;;;;;;;9.00;8.10;;;;;;;0.87;78.85;100724.47;5092346;28;20378;-76
2021/12/25 11:42:48;;;;;;;8.53;7.77;;;;;;;1.01;78.41;100744.22;5091233;28;20055;-77
2021/12/25 11:45:22;;;;;;;9.30;8.30;;;;;;;1.14;78.69;100746.47;5083662;28;20111;-79
2021/12/25 11:47:53;;;;;;;9.10;8.20;;;;;;;1.20;79.82;100763.78;5085622;28;20103;-76
2021/12/25 11:50:34;;;;;;;10.03;7.60;;;;;;;1.11;78.32;100764.88;5083818;28;20022;-77
2021/12/25 11:53:40;;;;;;;7.53;6.83;;;;;;;1.13;77.23;100772.72;5085041;28;20060;-79
2021/12/25 11:58:54;;;;;;;8.47;6.63;;;;;;;0.93;78.95;100759.25;5085800;28;20040;-77
2021/12/25 12:01:22;;;;;;;8.63;7.03;;;;;;;1.04;79.01;100765.09;5081072;28;20579;-78
2021/12/25 12:03:54;;;;;;;8.40;7.10;;;;;;;0.92;77.92;100719.13;5072901;28;20115;-76
2021/12/25 12:06:40;;;;;;;6.90;6.07;;;;;;;1.23;77.03;100758.47;5087785;28;20036;-78
2021/12/25 12:09:09;;;;;;;7.47;6.70;;;;;;;1.35;77.27;100738.94;5090367;28;20032;-81
2021/12/25 12:11:36;;;;;;;7.82;6.32;;;;;;;1.54;77.48;100762.91;5091177;28;20387;-78
2021/12/25 12:14:17;;;;;;;6.53;5.93;;;;;;;1.53;76.87;100767.28;5092809;28;20028;-77
2021/12/25 12:16:50;;;;;;;6.87;6.00;;;;;;;1.48;77.09;100763.06;5091425;28;20494;-76
2021/12/25 12:19:31;;;;;;;7.60;6.27;;;;;;;1.20;77.31;100710.53;5072923;28;20383;-77
2021/12/25 12:22:01;;;;;;;7.00;6.27;;;;;;;1.25;77.57;100683.31;5075699;28;20043;-78
2021/12/25 12:24:45;;;;;;;7.13;6.35;;;;;;;1.64;75.99;100730.28;5090311;28;20024;-78
2021/12/25 12:27:11;;;;;;;6.93;6.23;;;;;;;1.70;75.41;100742.34;5091820;28;20028;-78
2021/12/25 12:29:39;;;;;;;8.03;6.33;;;;;;;1.70;75.05;100732.72;5092737;28;20023;-77
2021/12/25 12:32:19;;;;;;;8.37;6.67;;;;;;;1.81;76.25;100727.19;5092392;28;20031;-79
2021/12/25 12:34:47;;;;;;;6.17;5.67;;;;;;;1.90;75.37;100726.91;5089487;28;20172;-80
2021/12/25 12:37:16;;;;;;;5.97;5.37;;;;;;;2.07;74.78;100725.56;5088795;28;20062;-80
2021/12/25 12:39:43;;;;;;;6.47;5.70;;;;;;;1.98;74.39;100721.47;5091826;28;20024;-80
2021/12/25 12:42:12;;;;;;;9.23;5.37;;;;;;;1.93;74.50;100708.47;5090651;28;20035;-75
2021/12/25 12:44:38;;;;;;;12.43;5.90;;;;;;;1.90;75.03;100697.22;5090875;28;20028;-75
2021/12/25 12:47:12;;;;;;;4.90;4.50;;;;;;;1.87;73.32;100710.41;5088711;28;20036;-75
2021/12/25 12:49:50;;;;;;;5.60;5.10;;;;;;;1.97;75.56;100723.22;5091229;28;20407;-78